createdAt,value
2018-05-11T00:01:08.437Z,81.20
2018-05-11T00:03:35.113Z,79.80
2018-05-11T00:06:02.099Z,82.10
2018-05-11T00:08:28.300Z,82.10
2018-05-11T00:10:55.906Z,82.90
2018-05-11T00:13:22.131Z,82.80
2018-05-11T00:15:48.334Z,82.40
2018-05-11T00:18:15.362Z,81.50
2018-05-11T00:20:42.290Z,80.90
2018-05-11T00:23:09.120Z,80.70
2018-05-11T00:25:35.912Z,80.90
2018-05-11T00:28:02.326Z,81.20
2018-05-11T00:30:30.136Z,80.60
2018-05-11T00:32:56.563Z,80.50
2018-05-11T00:35:24.130Z,80.80
2018-05-11T00:37:50.447Z,80.70
2018-05-11T00:40:16.791Z,80.70
2018-05-11T00:42:43.683Z,80.40
2018-05-11T00:45:10.673Z,80.30
2018-05-11T00:47:36.873Z,80.20
2018-05-11T00:50:03.264Z,80.60
2018-05-11T00:52:30.752Z,80.30
2018-05-11T00:54:58.154Z,80.40
2018-05-11T00:57:25.835Z,80.40
2018-05-11T00:59:52.495Z,80.30
2018-05-11T01:02:20.574Z,80.20
2018-05-11T01:04:48.086Z,79.90
2018-05-11T01:07:14.337Z,79.90
2018-05-11T01:09:41.752Z,79.60
2018-05-11T01:12:07.974Z,79.70
2018-05-11T01:14:34.710Z,79.20
2018-05-11T01:17:00.991Z,79.10
2018-05-11T01:19:27.873Z,79.00
2018-05-11T01:21:54.442Z,79.00
2018-05-11T01:24:22.531Z,76.20
2018-05-11T01:26:49.270Z,76.20
2018-05-11T01:29:17.014Z,75.90
2018-05-11T01:31:43.783Z,76.20
2018-05-11T01:34:10.498Z,75.90
2018-05-11T01:36:36.720Z,75.40
2018-05-11T01:39:02.975Z,75.30
2018-05-11T01:41:29.337Z,75.40
2018-05-11T01:43:56.475Z,74.70
2018-05-11T01:46:23.961Z,75.10
2018-05-11T01:48:51.220Z,75.10
2018-05-11T01:51:17.391Z,75.10
2018-05-11T01:53:44.285Z,74.90
2018-05-11T01:56:10.545Z,75.00
2018-05-11T01:58:37.348Z,74.80
2018-05-11T02:01:04.101Z,74.70
2018-05-11T02:03:30.830Z,74.80
2018-05-11T02:05:57.053Z,74.70
2018-05-11T02:08:23.584Z,75.10
2018-05-11T02:10:51.017Z,74.90
2018-05-11T02:13:17.839Z,74.90
2018-05-11T02:15:45.193Z,74.80
2018-05-11T02:18:11.960Z,74.80
2018-05-11T02:20:39.482Z,75.20
2018-05-11T02:23:05.808Z,75.10
2018-05-11T02:25:32.518Z,74.80
2018-05-11T02:27:58.925Z,74.90
2018-05-11T02:30:26.433Z,74.00
2018-05-11T02:32:53.730Z,74.10
2018-05-11T02:35:21.357Z,74.50
2018-05-11T02:37:48.150Z,74.50
2018-05-11T02:40:14.342Z,74.70
2018-05-11T02:42:40.550Z,74.60
2018-05-11T02:45:07.095Z,74.40
2018-05-11T02:47:34.722Z,74.60
2018-05-11T02:50:00.949Z,74.60
2018-05-11T02:52:27.158Z,75.10
2018-05-11T02:54:53.348Z,75.70
2018-05-11T02:57:28.728Z,76.80
2018-05-11T02:59:55.180Z,76.20
2018-05-11T03:02:29.110Z,76.10
2018-05-11T03:04:56.827Z,77.00
2018-05-11T03:07:23.709Z,76.50
2018-05-11T03:09:50.916Z,77.20
2018-05-11T03:12:17.872Z,77.30
2018-05-11T03:14:44.811Z,77.30
2018-05-11T03:17:11.556Z,77.80
2018-05-11T03:19:37.786Z,78.10
2018-05-11T03:22:04.013Z,78.50
2018-05-11T03:24:30.880Z,78.70
2018-05-11T03:26:57.590Z,79.20
2018-05-11T03:29:24.964Z,80.00
2018-05-11T03:31:51.708Z,80.50
2018-05-11T03:34:18.474Z,80.00
2018-05-11T03:36:45.216Z,80.80
2018-05-11T03:39:11.501Z,81.10
2018-05-11T03:41:38.261Z,80.00
2018-05-11T03:44:04.993Z,80.70
2018-05-11T03:46:31.213Z,80.30
2018-05-11T03:48:58.056Z,81.00
2018-05-11T03:51:24.265Z,81.20
2018-05-11T03:53:51.144Z,80.40
2018-05-11T03:56:17.416Z,81.00
2018-05-11T03:58:44.429Z,81.00
2018-05-11T04:01:23.515Z,80.90
2018-05-11T04:04:01.815Z,81.00
2018-05-11T04:06:40.963Z,80.50
2018-05-11T04:09:08.132Z,80.50
2018-05-11T04:11:35.429Z,81.10
2018-05-11T04:14:03.452Z,80.60
2018-05-11T04:16:32.441Z,80.60
2018-05-11T04:18:58.789Z,81.00
2018-05-11T04:21:25.031Z,80.00
2018-05-11T04:23:51.217Z,80.30
2018-05-11T04:26:18.012Z,79.90
2018-05-11T04:28:44.200Z,79.50
2018-05-11T04:31:11.372Z,79.60
2018-05-11T04:33:37.811Z,79.80
2018-05-11T04:36:04.861Z,79.40
2018-05-11T04:38:31.073Z,79.40
2018-05-11T04:40:58.442Z,79.60
2018-05-11T04:43:25.236Z,80.10
2018-05-11T04:45:51.545Z,79.80
2018-05-11T04:48:18.531Z,79.70
2018-05-11T04:50:44.745Z,79.70
2018-05-11T04:53:12.129Z,79.60
2018-05-11T04:55:38.389Z,79.20
2018-05-11T04:58:04.593Z,79.40
2018-05-11T05:00:30.904Z,79.40
2018-05-11T05:02:57.786Z,79.20
2018-05-11T05:05:24.765Z,78.80
2018-05-11T05:07:50.949Z,78.70
2018-05-11T05:10:17.714Z,79.10
2018-05-11T05:12:45.088Z,79.00
2018-05-11T05:15:12.092Z,79.00
2018-05-11T05:17:38.803Z,78.50
2018-05-11T05:20:05.036Z,78.50
2018-05-11T05:22:31.222Z,78.60
2018-05-11T05:24:57.433Z,78.80
2018-05-11T05:27:24.364Z,78.20
2018-05-11T05:29:50.551Z,78.10
2018-05-11T05:32:17.773Z,78.30
2018-05-11T05:34:44.557Z,78.40
2018-05-11T05:37:10.846Z,78.10
2018-05-11T05:39:37.142Z,78.50
2018-05-11T05:42:03.415Z,78.40
2018-05-11T05:44:29.598Z,78.20
2018-05-11T05:46:55.824Z,78.60
2018-05-11T05:49:22.679Z,79.60
2018-05-11T05:51:50.170Z,79.90
2018-05-11T05:54:16.802Z,79.90
2018-05-11T05:56:44.279Z,80.30
2018-05-11T05:59:11.095Z,80.30
2018-05-11T06:01:37.741Z,79.80
2018-05-11T06:04:04.760Z,79.50
2018-05-11T06:06:31.724Z,78.60
2018-05-11T06:08:57.919Z,78.40
2018-05-11T06:11:25.870Z,78.10
2018-05-11T06:13:52.575Z,78.10
2018-05-11T06:16:19.554Z,77.60
2018-05-11T06:18:45.904Z,77.80
2018-05-11T06:21:13.856Z,76.70
2018-05-11T06:23:40.649Z,76.60
2018-05-11T06:26:07.414Z,76.80
2018-05-11T06:28:33.648Z,76.80
2018-05-11T06:31:00.171Z,76.40
2018-05-11T06:33:27.185Z,76.50
2018-05-11T06:35:53.396Z,76.50
2018-05-11T06:38:21.024Z,76.30
2018-05-11T06:40:48.517Z,75.80
2018-05-11T06:43:15.575Z,76.00
2018-05-11T06:45:42.509Z,75.90
2018-05-11T06:48:10.973Z,75.80
2018-05-11T06:50:37.305Z,76.40
2018-05-11T06:53:05.228Z,74.60
2018-05-11T06:55:32.049Z,74.60
2018-05-11T06:57:58.486Z,74.90
2018-05-11T07:00:24.690Z,74.60
2018-05-11T07:02:51.746Z,74.90
2018-05-11T07:05:19.274Z,75.40
2018-05-11T07:07:45.660Z,75.40
2018-05-11T07:10:12.350Z,75.10
2018-05-11T07:12:38.576Z,74.60
2018-05-11T07:15:05.081Z,74.20
2018-05-11T07:17:33.301Z,74.60
2018-05-11T07:20:00.248Z,74.30
2018-05-11T07:22:27.301Z,74.30
2018-05-11T07:24:54.809Z,73.80
2018-05-11T07:27:20.993Z,73.70
2018-05-11T07:29:47.816Z,73.80
2018-05-11T07:32:15.810Z,73.10
2018-05-11T07:34:42.201Z,73.10
2018-05-11T07:37:09.792Z,72.10
2018-05-11T07:39:36.772Z,71.50
2018-05-11T07:42:03.068Z,71.50
2018-05-11T07:44:29.757Z,71.00
2018-05-11T07:46:56.733Z,70.00
2018-05-11T07:49:24.262Z,71.00
2018-05-11T07:51:51.025Z,70.90
2018-05-11T07:54:18.241Z,70.90
2018-05-11T07:56:44.484Z,71.60
2018-05-11T07:59:10.992Z,71.30
2018-05-11T08:01:41.640Z,70.90
2018-05-11T08:04:09.121Z,70.30
2018-05-11T08:06:37.054Z,70.00
2018-05-11T08:09:04.153Z,70.10
2018-05-11T08:11:31.215Z,70.30
2018-05-11T08:13:58.538Z,70.40
2018-05-11T08:16:25.676Z,70.40
2018-05-11T08:18:52.918Z,70.40
2018-05-11T08:21:19.757Z,69.30
2018-05-11T08:23:47.251Z,69.10
2018-05-11T08:26:13.801Z,69.00
2018-05-11T08:28:40.718Z,69.80
2018-05-11T08:31:06.973Z,69.80
2018-05-11T08:33:33.961Z,67.80
2018-05-11T08:36:00.302Z,67.80
2018-05-11T08:38:27.183Z,68.00
2018-05-11T08:40:54.434Z,68.50
2018-05-11T08:43:21.647Z,69.20
2018-05-11T08:45:47.836Z,69.20
2018-05-11T08:48:14.181Z,67.80
2018-05-11T08:50:40.860Z,67.10
2018-05-11T08:53:08.071Z,69.00
2018-05-11T08:55:34.831Z,69.00
2018-05-11T08:58:01.801Z,68.10
2018-05-11T09:00:28.780Z,68.10
2018-05-11T09:02:56.138Z,66.60
2018-05-11T09:05:22.373Z,66.60
2018-05-11T09:07:48.600Z,67.90
2018-05-11T09:10:15.335Z,68.70
2018-05-11T09:12:41.793Z,69.10
2018-05-11T09:15:08.934Z,69.60
2018-05-11T09:17:35.952Z,68.60
2018-05-11T09:20:02.908Z,68.90
2018-05-11T09:22:29.133Z,68.90
2018-05-11T09:24:55.471Z,69.30
2018-05-11T09:27:21.781Z,69.80
2018-05-11T09:29:49.225Z,69.70
2018-05-11T09:32:23.090Z,69.90
2018-05-11T09:34:49.331Z,70.60
2018-05-11T09:37:15.576Z,68.70
2018-05-11T09:39:41.858Z,69.30
2018-05-11T09:42:08.539Z,68.70
2018-05-11T09:44:34.750Z,68.90
2018-05-11T09:47:01.878Z,69.00
2018-05-11T09:49:29.403Z,69.50
2018-05-11T09:51:56.027Z,69.40
2018-05-11T09:54:23.781Z,67.00
2018-05-11T09:56:50.566Z,67.00
2018-05-11T09:59:16.805Z,66.30
2018-05-11T10:01:43.598Z,67.60
2018-05-11T10:04:09.823Z,66.30
2018-05-11T10:06:36.580Z,66.00
2018-05-11T10:09:03.812Z,62.20
2018-05-11T10:11:30.841Z,61.90
2018-05-11T10:13:57.734Z,62.00
2018-05-11T10:16:24.144Z,60.50
2018-05-11T10:18:51.125Z,60.60
2018-05-11T10:21:17.475Z,60.50
2018-05-11T10:23:43.681Z,60.40
2018-05-11T10:26:09.864Z,59.80
2018-05-11T10:28:36.771Z,59.90
2018-05-11T10:31:03.514Z,58.80
2018-05-11T10:33:29.724Z,58.60
2018-05-11T10:35:55.950Z,58.20
2018-05-11T10:38:22.952Z,57.50
2018-05-11T10:40:50.149Z,57.30
2018-05-11T10:43:17.124Z,57.30
2018-05-11T10:45:43.438Z,56.30
2018-05-11T10:48:10.311Z,57.20
2018-05-11T10:50:36.544Z,57.00
2018-05-11T10:53:02.884Z,57.10
2018-05-11T10:55:30.789Z,56.00
2018-05-11T10:57:57.824Z,56.50
2018-05-11T11:00:24.094Z,56.50
2018-05-11T11:02:50.962Z,56.20
2018-05-11T11:05:17.257Z,56.00
2018-05-11T11:07:43.975Z,55.60
2018-05-11T11:10:10.773Z,56.20
2018-05-11T11:12:37.005Z,55.70
2018-05-11T11:15:03.246Z,55.50
2018-05-11T11:17:30.746Z,55.00
2018-05-11T11:19:57.508Z,55.10
2018-05-11T11:22:24.456Z,54.70
2018-05-11T11:24:50.762Z,54.00
2018-05-11T11:27:17.961Z,54.50
2018-05-11T11:29:44.283Z,53.60
2018-05-11T11:32:10.874Z,54.90
2018-05-11T11:34:37.920Z,53.20
2018-05-11T11:37:04.661Z,53.20
2018-05-11T11:39:31.265Z,53.50
2018-05-11T11:41:58.929Z,52.30
2018-05-11T11:44:26.305Z,52.00
2018-05-11T11:46:52.516Z,52.00
2018-05-11T11:49:19.468Z,51.10
2018-05-11T11:51:46.129Z,51.00
2018-05-11T11:54:20.661Z,50.70
2018-05-11T11:56:46.877Z,50.70
2018-05-11T11:59:13.139Z,50.40
2018-05-11T12:01:39.441Z,52.10
2018-05-11T12:04:06.282Z,51.30
2018-05-11T12:06:33.045Z,52.00
2018-05-11T12:08:59.551Z,50.20
2018-05-11T12:11:26.413Z,50.60
2018-05-11T12:14:00.073Z,50.20
2018-05-11T12:16:27.317Z,51.00
2018-05-11T12:18:54.359Z,49.90
2018-05-11T12:21:21.532Z,50.00
2018-05-11T12:23:49.856Z,50.00
2018-05-11T12:26:16.735Z,49.30
2018-05-11T12:28:43.239Z,49.70
2018-05-11T12:33:48.243Z,50.50
2018-05-11T12:36:16.166Z,50.00
2018-05-11T12:38:43.133Z,50.00
2018-05-11T12:41:10.229Z,47.60
2018-05-11T12:43:37.301Z,47.60
2018-05-11T12:46:03.551Z,48.40
2018-05-11T12:48:30.589Z,48.60
2018-05-11T12:50:58.251Z,49.10
2018-05-11T12:53:25.907Z,48.10
2018-05-11T12:55:52.205Z,48.10
2018-05-11T12:58:19.343Z,49.40
2018-05-11T13:00:45.585Z,48.00
2018-05-11T13:03:11.865Z,48.20
2018-05-11T13:05:38.598Z,49.00
2018-05-11T13:08:05.558Z,49.00
2018-05-11T13:10:32.130Z,49.00
2018-05-11T13:13:00.187Z,49.90
2018-05-11T13:15:26.395Z,49.90
2018-05-11T13:17:52.597Z,48.80
2018-05-11T13:20:19.765Z,47.70
2018-05-11T13:22:45.998Z,47.70
2018-05-11T13:25:12.888Z,47.50
2018-05-11T13:27:40.131Z,47.90
2018-05-11T13:30:07.398Z,47.90
2018-05-11T13:32:33.656Z,47.80
2018-05-11T13:35:00.850Z,47.30
2018-05-11T13:37:28.877Z,47.10
2018-05-11T13:39:55.921Z,47.60
2018-05-11T13:42:23.281Z,47.40
2018-05-11T13:44:50.307Z,47.60
2018-05-11T13:47:17.397Z,47.60
2018-05-11T13:49:44.061Z,48.20
2018-05-11T13:52:11.054Z,47.50
2018-05-11T13:54:38.173Z,46.90
2018-05-11T13:57:05.769Z,47.10
2018-05-11T13:59:33.266Z,46.00
2018-05-11T14:02:00.754Z,45.90
2018-05-11T14:04:27.032Z,46.60
2018-05-11T14:06:53.815Z,45.90
2018-05-11T14:09:20.561Z,46.00
2018-05-11T14:11:46.753Z,45.80
2018-05-11T14:14:13.595Z,45.60
2018-05-11T14:16:40.834Z,46.50
2018-05-11T14:19:07.164Z,46.70
2018-05-11T14:21:33.399Z,47.00
2018-05-11T14:24:00.006Z,46.70
2018-05-11T14:42:42.733Z,46.30
2018-05-11T14:45:10.981Z,46.30
2018-05-11T14:47:38.498Z,46.30
2018-05-11T14:50:04.702Z,46.30
2018-05-11T14:52:31.952Z,46.20
2018-05-11T14:54:58.545Z,45.70
2018-05-11T14:57:25.665Z,46.50
2018-05-11T14:59:51.924Z,46.40
2018-05-11T15:02:18.698Z,45.70
2018-05-11T15:04:45.156Z,46.70
2018-05-11T15:07:13.377Z,45.20
2018-05-11T15:09:40.354Z,46.10
2018-05-11T15:12:07.547Z,46.00
2018-05-11T15:14:34.083Z,45.70
2018-05-11T15:17:01.779Z,45.60
2018-05-11T15:19:28.546Z,45.40
2018-05-11T15:21:54.797Z,45.80
2018-05-11T15:24:21.685Z,45.40
2018-05-11T15:26:48.679Z,46.00
2018-05-11T15:29:15.493Z,46.00
2018-05-11T15:31:42.975Z,45.80
2018-05-11T15:34:09.237Z,45.80
2018-05-11T15:36:35.764Z,46.10
2018-05-11T15:39:03.256Z,45.90
2018-05-11T15:41:30.905Z,46.10
2018-05-11T15:43:57.274Z,46.10
2018-05-11T15:46:24.539Z,46.60
2018-05-11T15:48:50.902Z,47.20
2018-05-11T15:51:17.774Z,46.90
2018-05-11T15:53:45.071Z,47.00
2018-05-11T15:56:12.279Z,46.50
2018-05-11T15:58:39.856Z,46.60
2018-05-11T16:01:07.399Z,46.50
2018-05-11T16:03:34.582Z,46.50
2018-05-11T16:06:01.684Z,46.20
2018-05-11T16:08:28.499Z,46.20
2018-05-11T16:10:55.128Z,46.80
2018-05-11T16:13:22.236Z,46.60
2018-05-11T16:15:49.314Z,46.50
2018-05-11T16:18:15.938Z,46.50
2018-05-11T16:20:43.008Z,46.90
2018-05-11T16:23:09.964Z,46.90
2018-05-11T16:25:37.037Z,46.90
2018-05-11T16:28:03.257Z,46.90
2018-05-11T16:30:29.475Z,47.30
2018-05-11T16:35:30.571Z,47.40
2018-05-11T16:37:57.508Z,48.20
2018-05-11T16:40:24.562Z,49.00
2018-05-11T16:42:51.331Z,49.00
2018-05-11T16:45:18.060Z,49.30
2018-05-11T16:47:44.301Z,48.70
2018-05-11T16:50:11.706Z,48.80
2018-05-11T16:52:38.033Z,48.60
2018-05-11T16:55:04.999Z,49.00
2018-05-11T16:57:31.979Z,48.70
2018-05-11T16:59:58.180Z,48.70
2018-05-11T17:02:25.149Z,49.10
2018-05-11T17:04:51.482Z,49.10
2018-05-11T17:07:18.141Z,49.50
2018-05-11T17:09:45.322Z,49.40
2018-05-11T17:12:12.336Z,49.40
2018-05-11T17:14:38.662Z,49.40
2018-05-11T17:17:05.670Z,49.90
2018-05-11T17:19:33.283Z,49.80
2018-05-11T17:22:00.804Z,50.10
2018-05-11T17:24:27.013Z,50.10
2018-05-11T17:26:54.642Z,50.80
2018-05-11T17:29:21.434Z,50.80
2018-05-11T17:31:47.652Z,50.80
2018-05-11T17:34:13.818Z,51.50
2018-05-11T17:36:40.255Z,50.90
2018-05-11T17:39:07.729Z,51.00
2018-05-11T17:41:34.130Z,51.00
2018-05-11T17:44:01.566Z,51.40
2018-05-11T17:46:27.791Z,51.40
2018-05-11T17:48:54.028Z,50.80
2018-05-11T17:51:20.795Z,50.50
2018-05-11T17:53:47.163Z,51.10
2018-05-11T17:56:14.774Z,50.40
2018-05-11T17:58:41.565Z,50.40
2018-05-11T18:01:08.509Z,50.80
2018-05-11T18:03:36.057Z,50.60
2018-05-11T18:06:02.612Z,50.60
2018-05-11T18:08:29.591Z,51.30
2018-05-11T18:10:55.914Z,51.10
2018-05-11T18:13:22.780Z,51.30
2018-05-11T18:15:49.520Z,51.30
2018-05-11T18:18:16.262Z,51.50
2018-05-11T18:20:43.115Z,53.90
2018-05-11T18:23:10.195Z,53.30
2018-05-11T18:25:37.820Z,54.20
2018-05-11T18:28:04.560Z,54.10
2018-05-11T18:30:30.823Z,54.40
2018-05-11T18:32:57.805Z,53.60
2018-05-11T18:35:24.661Z,53.60
2018-05-11T18:37:50.878Z,55.00
2018-05-11T18:40:17.820Z,55.30
2018-05-11T18:42:45.025Z,57.40
2018-05-11T18:45:12.022Z,58.40
2018-05-11T18:47:38.269Z,58.30
2018-05-11T18:50:05.023Z,58.90
2018-05-11T18:52:32.816Z,60.80
2018-05-11T18:55:00.777Z,60.70
2018-05-11T18:57:28.124Z,61.20
2018-05-11T18:59:54.352Z,61.20
2018-05-11T19:02:21.255Z,62.10
2018-05-11T19:04:48.041Z,62.40
2018-05-11T19:07:15.191Z,61.60
2018-05-11T19:09:42.202Z,61.60
2018-05-11T19:12:08.716Z,61.60
2018-05-11T19:14:35.458Z,61.40
2018-05-11T19:17:02.874Z,60.30
2018-05-11T19:19:29.106Z,60.20
2018-05-11T19:21:56.203Z,60.40
2018-05-11T19:24:23.065Z,60.40
2018-05-11T19:26:49.533Z,60.10
2018-05-11T19:29:17.103Z,60.50
2018-05-11T19:31:43.385Z,60.50
2018-05-11T19:34:09.638Z,60.60
2018-05-11T19:36:37.352Z,61.30
2018-05-11T19:39:03.904Z,61.20
2018-05-11T19:41:31.736Z,60.10
2018-05-11T19:43:58.512Z,60.70
2018-05-11T19:46:24.758Z,60.70
2018-05-11T19:48:51.770Z,60.20
2018-05-11T19:51:17.989Z,60.20
2018-05-11T19:53:44.431Z,59.60
2018-05-11T19:56:11.655Z,60.30
2018-05-11T19:58:38.209Z,60.20
2018-05-11T20:01:05.714Z,60.10
2018-05-11T20:03:32.760Z,60.60
2018-05-11T20:05:59.286Z,60.50
2018-05-11T20:08:25.515Z,59.90
2018-05-11T20:10:52.150Z,60.40
2018-05-11T20:13:18.516Z,60.50
2018-05-11T20:15:45.576Z,61.00
2018-05-11T20:18:12.101Z,61.00
2018-05-11T20:20:38.771Z,61.50
2018-05-11T20:23:05.031Z,61.00
2018-05-11T20:25:31.259Z,61.30
2018-05-11T20:27:57.474Z,60.10
2018-05-11T20:30:23.706Z,60.10
2018-05-11T20:32:49.913Z,59.60
2018-05-11T20:35:16.146Z,59.10
2018-05-11T20:37:43.304Z,58.90
2018-05-11T20:40:09.562Z,58.60
2018-05-11T20:42:35.785Z,58.60
2018-05-11T20:45:01.992Z,58.30
2018-05-11T20:47:28.549Z,58.10
2018-05-11T20:49:55.065Z,58.10
2018-05-11T20:52:22.696Z,58.10
2018-05-11T20:54:50.922Z,58.10
2018-05-11T20:57:17.133Z,58.00
2018-05-11T20:59:44.005Z,58.00
2018-05-11T21:02:10.999Z,58.10
2018-05-11T21:04:37.556Z,58.10
2018-05-11T21:07:05.179Z,58.20
2018-05-11T21:09:32.479Z,58.20
2018-05-11T21:11:58.701Z,58.00
2018-05-11T21:14:25.535Z,58.10
2018-05-11T21:16:52.324Z,58.30
2018-05-11T21:19:19.143Z,58.30
2018-05-11T21:21:46.637Z,58.20
2018-05-11T21:24:13.402Z,58.20
2018-05-11T21:26:39.596Z,58.20
2018-05-11T21:29:05.956Z,58.40
2018-05-11T21:31:33.109Z,58.40
2018-05-11T21:33:59.878Z,58.50
2018-05-11T21:36:26.277Z,58.50
2018-05-11T21:38:53.210Z,58.80
2018-05-11T21:41:19.411Z,58.60
2018-05-11T21:43:46.370Z,59.50
2018-05-11T21:46:12.570Z,59.50
2018-05-11T21:48:40.051Z,59.10
2018-05-11T21:51:07.870Z,59.10
2018-05-11T21:53:34.092Z,59.20
2018-05-11T21:56:00.627Z,59.40
2018-05-11T21:58:28.274Z,59.60
2018-05-11T22:00:55.470Z,59.50
2018-05-11T22:03:22.442Z,59.60
2018-05-11T22:05:49.253Z,59.40
2018-05-11T22:08:15.462Z,59.60
2018-05-11T22:10:41.644Z,59.60
2018-05-11T22:13:07.960Z,59.80
2018-05-11T22:15:34.246Z,60.00
2018-05-11T22:18:00.606Z,60.30
2018-05-11T22:20:27.657Z,60.30
2018-05-11T22:22:54.823Z,60.50
2018-05-11T22:41:36.971Z,61.70
2018-05-11T22:44:03.186Z,61.70
2018-05-11T22:46:29.974Z,62.90
2018-05-11T22:48:56.890Z,63.30
2018-05-11T22:51:23.758Z,63.30
2018-05-11T22:53:50.741Z,63.60
2018-05-11T22:56:17.345Z,63.60
2018-05-11T22:58:44.337Z,63.00
2018-05-11T23:01:10.675Z,63.00
2018-05-11T23:03:36.930Z,63.20
2018-05-11T23:06:03.689Z,63.50
2018-05-11T23:08:30.480Z,63.70
2018-05-11T23:10:57.248Z,63.50
2018-05-11T23:13:23.494Z,63.70
2018-05-11T23:15:50.413Z,64.40
2018-05-11T23:18:17.005Z,64.40
2018-05-11T23:20:44.021Z,65.60
2018-05-11T23:23:10.961Z,64.60
2018-05-11T23:25:38.466Z,65.40
2018-05-11T23:28:05.501Z,65.40
2018-05-11T23:30:33.165Z,65.00
2018-05-11T23:32:59.935Z,64.80
2018-05-11T23:35:27.009Z,65.30
2018-05-11T23:37:53.951Z,66.00
2018-05-11T23:40:22.027Z,65.30
2018-05-11T23:42:49.192Z,65.80
2018-05-11T23:45:16.673Z,66.00
2018-05-11T23:47:42.885Z,65.90
2018-05-11T23:50:09.728Z,65.60
2018-05-11T23:52:43.101Z,65.90
2018-05-11T23:55:10.988Z,66.20
2018-05-11T23:57:37.200Z,66.10
